sensor_id;sensor_type;location;lat;lon;timestamp;P1;durP1;ratioP1;P2;durP2;ratioP2
23986;SDS011;12514;52.140;5.602;2022-09-09T00:21:26;1.95;;;1.00;;
23986;SDS011;12514;52.140;5.602;2022-09-09T00:27:01;1.20;;;1.10;;
23986;SDS011;12514;52.140;5.602;2022-09-09T00:29:42;2.72;;;1.55;;
23986;SDS011;12514;52.140;5.602;2022-09-09T00:32:16;2.00;;;1.80;;
23986;SDS011;12514;52.140;5.602;2022-09-09T00:34:51;2.53;;;1.55;;
23986;SDS011;12514;52.140;5.602;2022-09-09T00:37:24;1.98;;;1.75;;
23986;SDS011;12514;52.140;5.602;2022-09-09T00:39:50;2.00;;;1.90;;
23986;SDS011;12514;52.140;5.602;2022-09-09T00:42:25;2.50;;;2.33;;
23986;SDS011;12514;52.140;5.602;2022-09-09T00:44:56;2.13;;;2.05;;
23986;SDS011;12514;52.140;5.602;2022-09-09T00:53:37;2.60;;;2.50;;
23986;SDS011;12514;52.140;5.602;2022-09-09T00:56:29;2.58;;;2.38;;
23986;SDS011;12514;52.140;5.602;2022-09-09T01:01:49;2.85;;;2.75;;
23986;SDS011;12514;52.140;5.602;2022-09-09T01:04:16;2.75;;;2.55;;
23986;SDS011;12514;52.140;5.602;2022-09-09T01:10:17;3.83;;;3.15;;
23986;SDS011;12514;52.140;5.602;2022-09-09T01:12:55;2.92;;;2.83;;
23986;SDS011;12514;52.140;5.602;2022-09-09T01:15:26;3.42;;;3.22;;
23986;SDS011;12514;52.140;5.602;2022-09-09T01:18:13;3.30;;;3.10;;
23986;SDS011;12514;52.140;5.602;2022-09-09T01:20:47;3.40;;;3.20;;
23986;SDS011;12514;52.140;5.602;2022-09-09T01:28:49;3.70;;;3.40;;
23986;SDS011;12514;52.140;5.602;2022-09-09T01:31:34;3.17;;;2.97;;
23986;SDS011;12514;52.140;5.602;2022-09-09T01:34:10;3.40;;;3.20;;
23986;SDS011;12514;52.140;5.602;2022-09-09T01:36:39;2.97;;;2.67;;
23986;SDS011;12514;52.140;5.602;2022-09-09T01:39:26;3.42;;;3.15;;
23986;SDS011;12514;52.140;5.602;2022-09-09T01:41:52;3.50;;;3.30;;
23986;SDS011;12514;52.140;5.602;2022-09-09T01:44:19;3.58;;;3.38;;
23986;SDS011;12514;52.140;5.602;2022-09-09T01:46:45;3.80;;;3.60;;
23986;SDS011;12514;52.140;5.602;2022-09-09T01:49:11;4.00;;;3.33;;
23986;SDS011;12514;52.140;5.602;2022-09-09T01:51:37;4.05;;;3.72;;
23986;SDS011;12514;52.140;5.602;2022-09-09T01:54:06;3.83;;;3.53;;
23986;SDS011;12514;52.140;5.602;2022-09-09T01:59:40;3.67;;;3.40;;
23986;SDS011;12514;52.140;5.602;2022-09-09T02:04:47;3.75;;;3.28;;
23986;SDS011;12514;52.140;5.602;2022-09-09T02:07:34;3.78;;;3.47;;
23986;SDS011;12514;52.140;5.602;2022-09-09T02:12:45;3.20;;;3.10;;
23986;SDS011;12514;52.140;5.602;2022-09-09T02:16:02;4.25;;;3.15;;
23986;SDS011;12514;52.140;5.602;2022-09-09T02:18:08;4.07;;;3.67;;
23986;SDS011;12514;52.140;5.602;2022-09-09T02:20:38;4.30;;;3.90;;
23986;SDS011;12514;52.140;5.602;2022-09-09T02:23:42;5.88;;;3.30;;
23986;SDS011;12514;52.140;5.602;2022-09-09T02:26:09;4.07;;;3.80;;
23986;SDS011;12514;52.140;5.602;2022-09-09T02:28:38;4.32;;;3.92;;
23986;SDS011;12514;52.140;5.602;2022-09-09T02:31:05;4.10;;;3.80;;
23986;SDS011;12514;52.140;5.602;2022-09-09T02:33:33;4.90;;;4.05;;
23986;SDS011;12514;52.140;5.602;2022-09-09T02:39:52;4.43;;;4.10;;
23986;SDS011;12514;52.140;5.602;2022-09-09T02:42:18;4.20;;;3.75;;
23986;SDS011;12514;52.140;5.602;2022-09-09T02:44:44;5.75;;;3.97;;
23986;SDS011;12514;52.140;5.602;2022-09-09T02:47:13;4.05;;;3.75;;
23986;SDS011;12514;52.140;5.602;2022-09-09T02:55:52;4.85;;;3.75;;
23986;SDS011;12514;52.140;5.602;2022-09-09T02:58:26;3.80;;;3.60;;
23986;SDS011;12514;52.140;5.602;2022-09-09T03:00:52;4.53;;;3.60;;
23986;SDS011;12514;52.140;5.602;2022-09-09T03:03:18;5.45;;;4.15;;
23986;SDS011;12514;52.140;5.602;2022-09-09T03:05:45;3.60;;;3.30;;
23986;SDS011;12514;52.140;5.602;2022-09-09T03:11:32;4.28;;;3.47;;
23986;SDS011;12514;52.140;5.602;2022-09-09T03:13:58;3.97;;;3.70;;
23986;SDS011;12514;52.140;5.602;2022-09-09T03:16:24;3.92;;;3.67;;
23986;SDS011;12514;52.140;5.602;2022-09-09T03:18:49;3.70;;;3.50;;
23986;SDS011;12514;52.140;5.602;2022-09-09T03:21:15;3.92;;;3.72;;
23986;SDS011;12514;52.140;5.602;2022-09-09T03:23:41;3.83;;;3.63;;
23986;SDS011;12514;52.140;5.602;2022-09-09T03:26:07;4.13;;;3.83;;
23986;SDS011;12514;52.140;5.602;2022-09-09T03:28:33;3.97;;;3.63;;
23986;SDS011;12514;52.140;5.602;2022-09-09T03:31:02;4.30;;;3.50;;
23986;SDS011;12514;52.140;5.602;2022-09-09T03:33:29;4.13;;;3.83;;
23986;SDS011;12514;52.140;5.602;2022-09-09T03:35:55;4.25;;;3.85;;
23986;SDS011;12514;52.140;5.602;2022-09-09T03:41:43;3.88;;;3.60;;
23986;SDS011;12514;52.140;5.602;2022-09-09T03:44:11;4.53;;;3.47;;
23986;SDS011;12514;52.140;5.602;2022-09-09T03:46:36;4.10;;;3.70;;
23986;SDS011;12514;52.140;5.602;2022-09-09T03:49:03;4.25;;;3.90;;
23986;SDS011;12514;52.140;5.602;2022-09-09T03:51:29;3.80;;;3.60;;
23986;SDS011;12514;52.140;5.602;2022-09-09T03:53:54;4.40;;;4.10;;
23986;SDS011;12514;52.140;5.602;2022-09-09T03:56:21;4.38;;;4.07;;
23986;SDS011;12514;52.140;5.602;2022-09-09T03:58:47;6.50;;;4.70;;
23986;SDS011;12514;52.140;5.602;2022-09-09T04:01:13;4.15;;;3.85;;
23986;SDS011;12514;52.140;5.602;2022-09-09T04:03:40;4.07;;;3.75;;
23986;SDS011;12514;52.140;5.602;2022-09-09T04:06:06;6.18;;;4.07;;
23986;SDS011;12514;52.140;5.602;2022-09-09T04:12:32;4.30;;;3.97;;
23986;SDS011;12514;52.140;5.602;2022-09-09T04:14:59;4.28;;;3.90;;
23986;SDS011;12514;52.140;5.602;2022-09-09T04:17:25;4.55;;;4.18;;
23986;SDS011;12514;52.140;5.602;2022-09-09T04:19:50;6.30;;;4.30;;
23986;SDS011;12514;52.140;5.602;2022-09-09T04:22:16;4.88;;;3.97;;
23986;SDS011;12514;52.140;5.602;2022-09-09T04:24:42;4.72;;;4.32;;
23986;SDS011;12514;52.140;5.602;2022-09-09T04:27:07;4.45;;;4.15;;
23986;SDS011;12514;52.140;5.602;2022-09-09T04:29:33;4.95;;;3.97;;
23986;SDS011;12514;52.140;5.602;2022-09-09T04:31:58;7.70;;;4.25;;
23986;SDS011;12514;52.140;5.602;2022-09-09T04:34:24;4.78;;;4.25;;
23986;SDS011;12514;52.140;5.602;2022-09-09T04:36:50;5.07;;;4.47;;
23986;SDS011;12514;52.140;5.602;2022-09-09T04:39:17;4.70;;;4.10;;
23986;SDS011;12514;52.140;5.602;2022-09-09T04:41:42;5.97;;;4.20;;
23986;SDS011;12514;52.140;5.602;2022-09-09T04:44:08;4.20;;;3.90;;
23986;SDS011;12514;52.140;5.602;2022-09-09T04:46:35;4.40;;;4.00;;
23986;SDS011;12514;52.140;5.602;2022-09-09T04:49:00;7.47;;;4.40;;
23986;SDS011;12514;52.140;5.602;2022-09-09T04:51:26;3.92;;;3.72;;
23986;SDS011;12514;52.140;5.602;2022-09-09T04:53:51;4.32;;;4.05;;
23986;SDS011;12514;52.140;5.602;2022-09-09T04:56:19;5.20;;;4.35;;
23986;SDS011;12514;52.140;5.602;2022-09-09T04:58:45;4.38;;;4.00;;
23986;SDS011;12514;52.140;5.602;2022-09-09T05:03:43;3.70;;;3.50;;
23986;SDS011;12514;52.140;5.602;2022-09-09T05:06:13;4.70;;;4.30;;
23986;SDS011;12514;52.140;5.602;2022-09-09T05:12:02;5.57;;;4.32;;
23986;SDS011;12514;52.140;5.602;2022-09-09T05:14:29;4.15;;;3.83;;
23986;SDS011;12514;52.140;5.602;2022-09-09T05:16:55;3.90;;;3.70;;
23986;SDS011;12514;52.140;5.602;2022-09-09T05:19:21;4.72;;;3.90;;
23986;SDS011;12514;52.140;5.602;2022-09-09T05:21:46;4.53;;;4.00;;
23986;SDS011;12514;52.140;5.602;2022-09-09T05:24:12;6.43;;;4.20;;
23986;SDS011;12514;52.140;5.602;2022-09-09T05:26:38;6.25;;;3.97;;
23986;SDS011;12514;52.140;5.602;2022-09-09T05:29:04;5.30;;;3.92;;
23986;SDS011;12514;52.140;5.602;2022-09-09T05:31:30;7.68;;;3.88;;
23986;SDS011;12514;52.140;5.602;2022-09-09T05:33:55;4.03;;;3.72;;
23986;SDS011;12514;52.140;5.602;2022-09-09T05:36:21;5.55;;;3.83;;
23986;SDS011;12514;52.140;5.602;2022-09-09T05:42:09;5.35;;;4.10;;
23986;SDS011;12514;52.140;5.602;2022-09-09T05:44:35;5.22;;;4.25;;
23986;SDS011;12514;52.140;5.602;2022-09-09T05:47:02;5.72;;;3.50;;
23986;SDS011;12514;52.140;5.602;2022-09-09T05:49:28;4.88;;;3.67;;
23986;SDS011;12514;52.140;5.602;2022-09-09T05:51:53;5.25;;;3.38;;
23986;SDS011;12514;52.140;5.602;2022-09-09T05:54:19;6.18;;;3.58;;
23986;SDS011;12514;52.140;5.602;2022-09-09T05:56:45;6.40;;;3.53;;
23986;SDS011;12514;52.140;5.602;2022-09-09T05:59:10;5.90;;;3.20;;
23986;SDS011;12514;52.140;5.602;2022-09-09T06:01:37;5.72;;;3.30;;
23986;SDS011;12514;52.140;5.602;2022-09-09T06:04:06;6.85;;;3.42;;
23986;SDS011;12514;52.140;5.602;2022-09-09T06:06:33;5.90;;;3.65;;
23986;SDS011;12514;52.140;5.602;2022-09-09T06:12:26;4.00;;;3.20;;
23986;SDS011;12514;52.140;5.602;2022-09-09T06:14:52;4.88;;;3.20;;
23986;SDS011;12514;52.140;5.602;2022-09-09T06:17:17;4.38;;;3.10;;
23986;SDS011;12514;52.140;5.602;2022-09-09T06:19:43;5.03;;;2.95;;
23986;SDS011;12514;52.140;5.602;2022-09-09T06:22:08;3.45;;;3.13;;
23986;SDS011;12514;52.140;5.602;2022-09-09T06:24:37;7.75;;;2.97;;
23986;SDS011;12514;52.140;5.602;2022-09-09T06:27:02;7.30;;;2.90;;
23986;SDS011;12514;52.140;5.602;2022-09-09T06:29:28;6.97;;;3.40;;
23986;SDS011;12514;52.140;5.602;2022-09-09T06:31:54;6.07;;;3.70;;
23986;SDS011;12514;52.140;5.602;2022-09-09T06:34:20;6.55;;;2.95;;
23986;SDS011;12514;52.140;5.602;2022-09-09T06:36:46;5.57;;;3.20;;
23986;SDS011;12514;52.140;5.602;2022-09-09T06:42:34;5.03;;;2.80;;
23986;SDS011;12514;52.140;5.602;2022-09-09T06:44:59;6.35;;;3.22;;
23986;SDS011;12514;52.140;5.602;2022-09-09T06:47:25;7.95;;;3.15;;
23986;SDS011;12514;52.140;5.602;2022-09-09T06:49:52;5.45;;;2.63;;
23986;SDS011;12514;52.140;5.602;2022-09-09T06:52:18;5.97;;;3.10;;
23986;SDS011;12514;52.140;5.602;2022-09-09T06:54:44;5.07;;;3.00;;
23986;SDS011;12514;52.140;5.602;2022-09-09T06:57:10;7.35;;;3.35;;
23986;SDS011;12514;52.140;5.602;2022-09-09T06:59:35;6.22;;;3.25;;
23986;SDS011;12514;52.140;5.602;2022-09-09T07:02:01;5.85;;;2.97;;
23986;SDS011;12514;52.140;5.602;2022-09-09T07:04:28;6.80;;;2.75;;
23986;SDS011;12514;52.140;5.602;2022-09-09T07:06:53;4.18;;;3.33;;
23986;SDS011;12514;52.140;5.602;2022-09-09T07:12:41;7.88;;;2.90;;
23986;SDS011;12514;52.140;5.602;2022-09-09T07:15:06;4.55;;;2.88;;
23986;SDS011;12514;52.140;5.602;2022-09-09T07:17:32;5.25;;;2.80;;
23986;SDS011;12514;52.140;5.602;2022-09-09T07:19:58;5.43;;;2.90;;
23986;SDS011;12514;52.140;5.602;2022-09-09T07:22:23;12.05;;;2.92;;
23986;SDS011;12514;52.140;5.602;2022-09-09T07:24:50;5.32;;;2.83;;
23986;SDS011;12514;52.140;5.602;2022-09-09T07:27:15;3.97;;;2.58;;
23986;SDS011;12514;52.140;5.602;2022-09-09T07:29:41;5.85;;;2.33;;
23986;SDS011;12514;52.140;5.602;2022-09-09T07:32:06;7.30;;;2.63;;
23986;SDS011;12514;52.140;5.602;2022-09-09T07:34:32;4.68;;;2.42;;
23986;SDS011;12514;52.140;5.602;2022-09-09T07:36:58;5.07;;;2.92;;
23986;SDS011;12514;52.140;5.602;2022-09-09T07:42:46;5.30;;;2.63;;
23986;SDS011;12514;52.140;5.602;2022-09-09T07:45:11;7.28;;;3.03;;
23986;SDS011;12514;52.140;5.602;2022-09-09T07:47:37;8.73;;;2.25;;
23986;SDS011;12514;52.140;5.602;2022-09-09T07:50:02;5.93;;;2.50;;
23986;SDS011;12514;52.140;5.602;2022-09-09T07:52:28;5.32;;;2.33;;
23986;SDS011;12514;52.140;5.602;2022-09-09T07:54:54;5.05;;;3.08;;
23986;SDS011;12514;52.140;5.602;2022-09-09T07:57:21;4.00;;;2.40;;
23986;SDS011;12514;52.140;5.602;2022-09-09T07:59:47;5.80;;;2.83;;
23986;SDS011;12514;52.140;5.602;2022-09-09T08:02:12;6.50;;;2.30;;
23986;SDS011;12514;52.140;5.602;2022-09-09T08:04:38;5.50;;;2.13;;
23986;SDS011;12514;52.140;5.602;2022-09-09T08:07:03;4.90;;;2.40;;
23986;SDS011;12514;52.140;5.602;2022-09-09T08:12:50;2.38;;;2.10;;
23986;SDS011;12514;52.140;5.602;2022-09-09T08:15:17;3.95;;;2.15;;
23986;SDS011;12514;52.140;5.602;2022-09-09T08:17:43;4.78;;;2.17;;
23986;SDS011;12514;52.140;5.602;2022-09-09T08:20:08;4.18;;;2.30;;
23986;SDS011;12514;52.140;5.602;2022-09-09T08:22:34;5.38;;;2.35;;
23986;SDS011;12514;52.140;5.602;2022-09-09T08:25:02;4.72;;;2.08;;
23986;SDS011;12514;52.140;5.602;2022-09-09T08:27:31;7.03;;;2.22;;
23986;SDS011;12514;52.140;5.602;2022-09-09T08:29:57;5.88;;;2.60;;
23986;SDS011;12514;52.140;5.602;2022-09-09T08:32:23;10.27;;;2.13;;
23986;SDS011;12514;52.140;5.602;2022-09-09T08:34:49;7.22;;;2.10;;
23986;SDS011;12514;52.140;5.602;2022-09-09T08:37:16;4.70;;;2.25;;
23986;SDS011;12514;52.140;5.602;2022-09-09T08:43:03;2.53;;;1.60;;
23986;SDS011;12514;52.140;5.602;2022-09-09T08:51:01;4.32;;;1.90;;
23986;SDS011;12514;52.140;5.602;2022-09-09T08:53:30;4.75;;;1.58;;
23986;SDS011;12514;52.140;5.602;2022-09-09T08:56:06;4.63;;;1.85;;
23986;SDS011;12514;52.140;5.602;2022-09-09T08:58:48;4.18;;;1.60;;
23986;SDS011;12514;52.140;5.602;2022-09-09T09:04:37;5.18;;;1.90;;
23986;SDS011;12514;52.140;5.602;2022-09-09T09:10:41;5.63;;;2.00;;
23986;SDS011;12514;52.140;5.602;2022-09-09T09:13:11;7.10;;;2.05;;
23986;SDS011;12514;52.140;5.602;2022-09-09T09:15:40;8.18;;;2.20;;
23986;SDS011;12514;52.140;5.602;2022-09-09T09:18:10;3.67;;;1.80;;
23986;SDS011;12514;52.140;5.602;2022-09-09T09:26:51;7.25;;;2.17;;
23986;SDS011;12514;52.140;5.602;2022-09-09T09:29:19;4.13;;;1.98;;
23986;SDS011;12514;52.140;5.602;2022-09-09T09:31:53;6.05;;;2.00;;
23986;SDS011;12514;52.140;5.602;2022-09-09T09:34:22;3.63;;;1.85;;
23986;SDS011;12514;52.140;5.602;2022-09-09T09:37:12;3.85;;;1.55;;
23986;SDS011;12514;52.140;5.602;2022-09-09T09:43:17;8.98;;;1.85;;
23986;SDS011;12514;52.140;5.602;2022-09-09T09:45:50;6.70;;;1.55;;
23986;SDS011;12514;52.140;5.602;2022-09-09T09:48:15;4.68;;;1.67;;
23986;SDS011;12514;52.140;5.602;2022-09-09T09:50:48;8.13;;;1.90;;
23986;SDS011;12514;52.140;5.602;2022-09-09T09:53:21;7.00;;;1.88;;
23986;SDS011;12514;52.140;5.602;2022-09-09T09:55:52;3.25;;;1.42;;
23986;SDS011;12514;52.140;5.602;2022-09-09T09:58:30;5.68;;;2.08;;
23986;SDS011;12514;52.140;5.602;2022-09-09T10:00:59;7.45;;;2.03;;
23986;SDS011;12514;52.140;5.602;2022-09-09T10:03:27;5.68;;;1.92;;
23986;SDS011;12514;52.140;5.602;2022-09-09T10:05:54;4.65;;;1.95;;
23986;SDS011;12514;52.140;5.602;2022-09-09T10:08:21;5.38;;;1.92;;
23986;SDS011;12514;52.140;5.602;2022-09-09T10:19:34;4.82;;;2.10;;
23986;SDS011;12514;52.140;5.602;2022-09-09T10:22:05;1.92;;;1.73;;
23986;SDS011;12514;52.140;5.602;2022-09-09T10:24:51;5.13;;;2.00;;
23986;SDS011;12514;52.140;5.602;2022-09-09T10:30:59;5.95;;;2.20;;
23986;SDS011;12514;52.140;5.602;2022-09-09T10:36:20;7.00;;;2.17;;
23986;SDS011;12514;52.140;5.602;2022-09-09T10:42:12;3.95;;;1.63;;
23986;SDS011;12514;52.140;5.602;2022-09-09T10:51:23;4.90;;;2.08;;
23986;SDS011;12514;52.140;5.602;2022-09-09T10:54:02;9.48;;;2.17;;
23986;SDS011;12514;52.140;5.602;2022-09-09T10:56:38;7.65;;;2.47;;
23986;SDS011;12514;52.140;5.602;2022-09-09T11:04:19;3.00;;;2.00;;
23986;SDS011;12514;52.140;5.602;2022-09-09T11:06:50;2.60;;;2.17;;
23986;SDS011;12514;52.140;5.602;2022-09-09T11:09:26;3.20;;;2.03;;
23986;SDS011;12514;52.140;5.602;2022-09-09T11:11:56;6.43;;;2.25;;
23986;SDS011;12514;52.140;5.602;2022-09-09T11:14:39;5.63;;;2.47;;
23986;SDS011;12514;52.140;5.602;2022-09-09T11:17:40;5.40;;;2.20;;
23986;SDS011;12514;52.140;5.602;2022-09-09T11:20:15;6.70;;;2.72;;
23986;SDS011;12514;52.140;5.602;2022-09-09T11:23:01;5.85;;;2.92;;
23986;SDS011;12514;52.140;5.602;2022-09-09T11:25:41;6.47;;;3.30;;
23986;SDS011;12514;52.140;5.602;2022-09-09T11:42:40;4.43;;;2.20;;
23986;SDS011;12514;52.140;5.602;2022-09-09T11:45:11;4.05;;;2.50;;
23986;SDS011;12514;52.140;5.602;2022-09-09T11:47:54;3.50;;;2.53;;
23986;SDS011;12514;52.140;5.602;2022-09-09T11:52:47;3.45;;;2.30;;
23986;SDS011;12514;52.140;5.602;2022-09-09T11:58:40;3.78;;;2.25;;
23986;SDS011;12514;52.140;5.602;2022-09-09T12:01:15;2.72;;;2.35;;
23986;SDS011;12514;52.140;5.602;2022-09-09T12:04:01;4.07;;;2.40;;
23986;SDS011;12514;52.140;5.602;2022-09-09T12:06:46;3.25;;;2.33;;
23986;SDS011;12514;52.140;5.602;2022-09-09T12:12:04;7.82;;;2.50;;
23986;SDS011;12514;52.140;5.602;2022-09-09T12:17:28;4.57;;;1.95;;
23986;SDS011;12514;52.140;5.602;2022-09-09T12:20:03;5.38;;;1.95;;
23986;SDS011;12514;52.140;5.602;2022-09-09T12:26:07;4.20;;;1.90;;
23986;SDS011;12514;52.140;5.602;2022-09-09T12:34:09;3.70;;;2.30;;
23986;SDS011;12514;52.140;5.602;2022-09-09T12:36:35;5.05;;;2.70;;
23986;SDS011;12514;52.140;5.602;2022-09-09T12:39:15;3.28;;;2.95;;
23986;SDS011;12514;52.140;5.602;2022-09-09T12:41:51;3.80;;;2.85;;
23986;SDS011;12514;52.140;5.602;2022-09-09T12:44:22;6.07;;;2.72;;
23986;SDS011;12514;52.140;5.602;2022-09-09T12:46:48;9.45;;;2.97;;
23986;SDS011;12514;52.140;5.602;2022-09-09T12:49:32;5.47;;;2.63;;
23986;SDS011;12514;52.140;5.602;2022-09-09T12:52:03;4.70;;;2.55;;
23986;SDS011;12514;52.140;5.602;2022-09-09T12:54:32;3.03;;;2.60;;
23986;SDS011;12514;52.140;5.602;2022-09-09T12:57:53;5.78;;;2.40;;
23986;SDS011;12514;52.140;5.602;2022-09-09T13:00:21;5.13;;;2.03;;
23986;SDS011;12514;52.140;5.602;2022-09-09T13:03:22;2.97;;;2.42;;
23986;SDS011;12514;52.140;5.602;2022-09-09T13:05:46;2.80;;;2.60;;
23986;SDS011;12514;52.140;5.602;2022-09-09T13:08:13;2.88;;;2.58;;
23986;SDS011;12514;52.140;5.602;2022-09-09T13:14:01;4.30;;;2.38;;
23986;SDS011;12514;52.140;5.602;2022-09-09T13:16:28;4.35;;;2.33;;
23986;SDS011;12514;52.140;5.602;2022-09-09T13:18:56;5.40;;;2.38;;
23986;SDS011;12514;52.140;5.602;2022-09-09T13:21:36;4.32;;;2.15;;
23986;SDS011;12514;52.140;5.602;2022-09-09T13:24:04;3.58;;;2.30;;
23986;SDS011;12514;52.140;5.602;2022-09-09T13:30:20;3.28;;;2.10;;
23986;SDS011;12514;52.140;5.602;2022-09-09T13:33:06;3.28;;;1.80;;
23986;SDS011;12514;52.140;5.602;2022-09-09T13:36:12;4.70;;;2.05;;
23986;SDS011;12514;52.140;5.602;2022-09-09T13:38:54;2.97;;;2.15;;
23986;SDS011;12514;52.140;5.602;2022-09-09T13:41:22;4.80;;;2.40;;
23986;SDS011;12514;52.140;5.602;2022-09-09T13:43:49;4.82;;;2.17;;
23986;SDS011;12514;52.140;5.602;2022-09-09T13:49:00;3.22;;;2.03;;
23986;SDS011;12514;52.140;5.602;2022-09-09T13:51:43;4.28;;;1.98;;
23986;SDS011;12514;52.140;5.602;2022-09-09T13:54:16;4.53;;;2.40;;
23986;SDS011;12514;52.140;5.602;2022-09-09T13:56:43;4.05;;;2.00;;
23986;SDS011;12514;52.140;5.602;2022-09-09T13:59:13;2.00;;;1.80;;
23986;SDS011;12514;52.140;5.602;2022-09-09T14:01:44;3.38;;;1.92;;
23986;SDS011;12514;52.140;5.602;2022-09-09T14:04:10;3.35;;;2.20;;
23986;SDS011;12514;52.140;5.602;2022-09-09T14:06:37;3.40;;;1.85;;
23986;SDS011;12514;52.140;5.602;2022-09-09T14:09:05;4.22;;;2.33;;
23986;SDS011;12514;52.140;5.602;2022-09-09T14:11:31;4.63;;;2.40;;
23986;SDS011;12514;52.140;5.602;2022-09-09T14:13:57;3.08;;;1.88;;
23986;SDS011;12514;52.140;5.602;2022-09-09T14:16:22;4.25;;;2.22;;
23986;SDS011;12514;52.140;5.602;2022-09-09T14:18:48;4.00;;;1.67;;
23986;SDS011;12514;52.140;5.602;2022-09-09T14:21:14;2.78;;;1.95;;
23986;SDS011;12514;52.140;5.602;2022-09-09T14:23:40;5.97;;;2.17;;
23986;SDS011;12514;52.140;5.602;2022-09-09T14:26:06;4.05;;;2.13;;
23986;SDS011;12514;52.140;5.602;2022-09-09T14:28:33;4.70;;;2.20;;
23986;SDS011;12514;52.140;5.602;2022-09-09T14:31:00;2.75;;;1.85;;
23986;SDS011;12514;52.140;5.602;2022-09-09T14:33:26;2.78;;;1.58;;
23986;SDS011;12514;52.140;5.602;2022-09-09T14:35:57;3.08;;;1.80;;
23986;SDS011;12514;52.140;5.602;2022-09-09T14:38:24;2.85;;;1.50;;
23986;SDS011;12514;52.140;5.602;2022-09-09T14:40:50;1.65;;;1.55;;
23986;SDS011;12514;52.140;5.602;2022-09-09T14:43:16;2.53;;;1.38;;
23986;SDS011;12514;52.140;5.602;2022-09-09T14:45:41;2.60;;;1.45;;
23986;SDS011;12514;52.140;5.602;2022-09-09T14:48:08;3.35;;;1.65;;
23986;SDS011;12514;52.140;5.602;2022-09-09T14:50:33;2.53;;;2.05;;
23986;SDS011;12514;52.140;5.602;2022-09-09T14:53:01;4.80;;;1.40;;
23986;SDS011;12514;52.140;5.602;2022-09-09T14:55:27;1.92;;;1.48;;
23986;SDS011;12514;52.140;5.602;2022-09-09T15:01:17;2.10;;;1.70;;
23986;SDS011;12514;52.140;5.602;2022-09-09T15:03:48;5.20;;;1.92;;
23986;SDS011;12514;52.140;5.602;2022-09-09T15:06:17;2.90;;;2.15;;
23986;SDS011;12514;52.140;5.602;2022-09-09T15:08:43;2.67;;;2.03;;
23986;SDS011;12514;52.140;5.602;2022-09-09T15:11:11;3.10;;;2.05;;
23986;SDS011;12514;52.140;5.602;2022-09-09T15:13:38;2.53;;;1.95;;
23986;SDS011;12514;52.140;5.602;2022-09-09T15:18:35;5.25;;;2.58;;
23986;SDS011;12514;52.140;5.602;2022-09-09T15:21:02;4.15;;;2.40;;
23986;SDS011;12514;52.140;5.602;2022-09-09T15:23:32;5.25;;;2.40;;
23986;SDS011;12514;52.140;5.602;2022-09-09T15:25:59;2.28;;;1.90;;
23986;SDS011;12514;52.140;5.602;2022-09-09T15:28:25;2.67;;;1.95;;
23986;SDS011;12514;52.140;5.602;2022-09-09T15:30:51;3.08;;;1.70;;
23986;SDS011;12514;52.140;5.602;2022-09-09T15:33:18;3.67;;;2.03;;
23986;SDS011;12514;52.140;5.602;2022-09-09T15:35:44;3.38;;;1.75;;
23986;SDS011;12514;52.140;5.602;2022-09-09T15:38:10;2.55;;;1.73;;
23986;SDS011;12514;52.140;5.602;2022-09-09T15:40:38;3.70;;;1.52;;
23986;SDS011;12514;52.140;5.602;2022-09-09T15:46:33;2.63;;;1.23;;
23986;SDS011;12514;52.140;5.602;2022-09-09T15:49:10;0.95;;;0.68;;
23986;SDS011;12514;52.140;5.602;2022-09-09T15:51:41;1.25;;;0.80;;
23986;SDS011;12514;52.140;5.602;2022-09-09T15:54:09;1.58;;;0.88;;
23986;SDS011;12514;52.140;5.602;2022-09-09T15:56:39;0.80;;;0.80;;
23986;SDS011;12514;52.140;5.602;2022-09-09T15:59:05;1.05;;;0.80;;
23986;SDS011;12514;52.140;5.602;2022-09-09T16:01:31;1.13;;;1.10;;
23986;SDS011;12514;52.140;5.602;2022-09-09T16:03:57;2.05;;;0.90;;
23986;SDS011;12514;52.140;5.602;2022-09-09T16:06:24;3.30;;;1.10;;
23986;SDS011;12514;52.140;5.602;2022-09-09T16:08:53;1.58;;;0.93;;
23986;SDS011;12514;52.140;5.602;2022-09-09T16:11:23;1.35;;;1.25;;
23986;SDS011;12514;52.140;5.602;2022-09-09T16:13:54;1.52;;;1.10;;
23986;SDS011;12514;52.140;5.602;2022-09-09T16:16:21;2.97;;;1.98;;
23986;SDS011;12514;52.140;5.602;2022-09-09T16:18:52;2.10;;;1.88;;
23986;SDS011;12514;52.140;5.602;2022-09-09T16:24:11;1.50;;;1.20;;
23986;SDS011;12514;52.140;5.602;2022-09-09T16:26:39;1.88;;;1.50;;
23986;SDS011;12514;52.140;5.602;2022-09-09T16:29:07;1.88;;;1.77;;
23986;SDS011;12514;52.140;5.602;2022-09-09T16:31:33;5.00;;;1.17;;
23986;SDS011;12514;52.140;5.602;2022-09-09T16:33:59;1.52;;;1.20;;
23986;SDS011;12514;52.140;5.602;2022-09-09T16:36:28;4.88;;;1.08;;
23986;SDS011;12514;52.140;5.602;2022-09-09T16:38:56;1.15;;;1.05;;
23986;SDS011;12514;52.140;5.602;2022-09-09T16:41:26;1.58;;;1.30;;
23986;SDS011;12514;52.140;5.602;2022-09-09T16:44:12;2.90;;;1.70;;
23986;SDS011;12514;52.140;5.602;2022-09-09T16:46:39;2.22;;;2.08;;
23986;SDS011;12514;52.140;5.602;2022-09-09T16:49:07;4.05;;;2.08;;
23986;SDS011;12514;52.140;5.602;2022-09-09T16:51:36;2.88;;;2.00;;
23986;SDS011;12514;52.140;5.602;2022-09-09T16:54:07;2.08;;;1.85;;
23986;SDS011;12514;52.140;5.602;2022-09-09T16:56:35;2.25;;;2.10;;
23986;SDS011;12514;52.140;5.602;2022-09-09T16:59:04;4.28;;;2.75;;
23986;SDS011;12514;52.140;5.602;2022-09-09T17:01:34;3.00;;;2.80;;
23986;SDS011;12514;52.140;5.602;2022-09-09T17:04:06;3.25;;;3.05;;
23986;SDS011;12514;52.140;5.602;2022-09-09T17:06:38;2.85;;;2.13;;
23986;SDS011;12514;52.140;5.602;2022-09-09T17:09:08;2.45;;;1.63;;
23986;SDS011;12514;52.140;5.602;2022-09-09T17:11:35;3.92;;;2.60;;
23986;SDS011;12514;52.140;5.602;2022-09-09T17:14:01;8.55;;;4.80;;
23986;SDS011;12514;52.140;5.602;2022-09-09T17:16:29;29.42;;;7.93;;
23986;SDS011;12514;52.140;5.602;2022-09-09T17:18:57;14.07;;;4.93;;
23986;SDS011;12514;52.140;5.602;2022-09-09T17:21:29;4.00;;;2.47;;
23986;SDS011;12514;52.140;5.602;2022-09-09T17:23:56;3.00;;;2.63;;
23986;SDS011;12514;52.140;5.602;2022-09-09T17:26:23;2.42;;;2.22;;
23986;SDS011;12514;52.140;5.602;2022-09-09T17:33:06;2.85;;;2.47;;
23986;SDS011;12514;52.140;5.602;2022-09-09T17:35:32;8.13;;;3.40;;
23986;SDS011;12514;52.140;5.602;2022-09-09T17:37:58;3.63;;;3.22;;
23986;SDS011;12514;52.140;5.602;2022-09-09T17:40:24;3.03;;;2.70;;
23986;SDS011;12514;52.140;5.602;2022-09-09T17:42:49;4.03;;;2.85;;
23986;SDS011;12514;52.140;5.602;2022-09-09T17:45:15;4.40;;;3.22;;
23986;SDS011;12514;52.140;5.602;2022-09-09T17:47:41;5.32;;;4.90;;
23986;SDS011;12514;52.140;5.602;2022-09-09T17:50:08;5.35;;;4.78;;
23986;SDS011;12514;52.140;5.602;2022-09-09T17:52:35;5.63;;;3.22;;
23986;SDS011;12514;52.140;5.602;2022-09-09T17:55:00;3.20;;;2.78;;
23986;SDS011;12514;52.140;5.602;2022-09-09T17:57:26;3.83;;;3.53;;
23986;SDS011;12514;52.140;5.602;2022-09-09T17:59:52;4.97;;;4.32;;
23986;SDS011;12514;52.140;5.602;2022-09-09T18:02:18;4.53;;;4.18;;
23986;SDS011;12514;52.140;5.602;2022-09-09T18:04:43;4.50;;;4.18;;
23986;SDS011;12514;52.140;5.602;2022-09-09T18:07:11;4.43;;;4.03;;
23986;SDS011;12514;52.140;5.602;2022-09-09T18:09:38;4.93;;;4.40;;
23986;SDS011;12514;52.140;5.602;2022-09-09T18:12:04;3.78;;;3.50;;
23986;SDS011;12514;52.140;5.602;2022-09-09T18:14:31;3.92;;;3.30;;
23986;SDS011;12514;52.140;5.602;2022-09-09T18:16:58;6.07;;;3.30;;
23986;SDS011;12514;52.140;5.602;2022-09-09T18:19:26;4.25;;;3.10;;
23986;SDS011;12514;52.140;5.602;2022-09-09T18:21:54;7.25;;;3.05;;
23986;SDS011;12514;52.140;5.602;2022-09-09T18:24:21;3.55;;;2.85;;
23986;SDS011;12514;52.140;5.602;2022-09-09T18:26:47;2.70;;;2.50;;
23986;SDS011;12514;52.140;5.602;2022-09-09T18:32:35;3.63;;;2.97;;
23986;SDS011;12514;52.140;5.602;2022-09-09T18:35:01;3.15;;;2.85;;
23986;SDS011;12514;52.140;5.602;2022-09-09T18:37:26;4.10;;;2.53;;